LXU1 CYUL-LFMN
Flight info
| Callsign | LXU1 |
|---|---|
| Flight time | N/A |
| Altitude | 35000 |
| Route | ANTEG DCT OBRON DCT MOBUB DCT EBMOS DCT IMORI DCT KITOP DCT CEFOU N745B LOMSI/M080F350 DCT 55N050W 56N040W 55N030W 53N020W DCT DINIM DCT ELSOX DCT TAKAS/N0463F350 DCT ALUTA DCT KORER DCT LEMKA DCT BEBIX DCT LERGA DCT LIQID DCT LATAM DCT TUNUR DCT NISAR |
| Aircraft | CL60/M-SABDE1E2E3FGHIJ1J3J4J7M3P2RUWXYZ/LB1D1 |
Departure
| Time | N/A |
|---|---|
| Airport | Montreal / Pierre Elliott Trudeau International Airport (CYUL) |
Arrival
| Time | 2026-05-05 05:01 |
|---|---|
| Airport | Nice-Côte d'Azur Airport (LFMN) |
| Time | Latitude | Longitude | Altitude | Speed | Heading |
|---|---|---|---|---|---|
| 2026-05-05 03:03 | 49.79269 | -10.20647 | 35085 ft | 448 kts | 112° |
| 2026-05-05 03:03 | 49.76342 | -10.12131 | 35080 ft | 448 kts | 112° |
| 2026-05-05 03:04 | 49.73403 | -10.03612 | 35078 ft | 447 kts | 112° |
| 2026-05-05 03:04 | 49.70493 | -9.95201 | 35077 ft | 447 kts | 112° |
| 2026-05-05 03:05 | 49.67544 | -9.86710 | 35079 ft | 447 kts | 112° |
| 2026-05-05 03:05 | 49.64604 | -9.78269 | 35077 ft | 447 kts | 112° |
| 2026-05-05 03:06 | 49.61659 | -9.69843 | 35077 ft | 447 kts | 112° |
| 2026-05-05 03:06 | 49.58725 | -9.61474 | 35083 ft | 446 kts | 112° |
| 2026-05-05 03:07 | 49.55761 | -9.53046 | 35080 ft | 448 kts | 112° |
| 2026-05-05 03:07 | 49.52799 | -9.44652 | 35071 ft | 449 kts | 113° |
| 2026-05-05 03:08 | 49.49795 | -9.36167 | 35076 ft | 450 kts | 113° |
| 2026-05-05 03:08 | 49.46800 | -9.27736 | 35077 ft | 452 kts | 114° |
| 2026-05-05 03:09 | 49.43771 | -9.19237 | 35079 ft | 452 kts | 114° |
| 2026-05-05 03:09 | 49.40756 | -9.10805 | 35082 ft | 452 kts | 114° |
| 2026-05-05 03:10 | 49.37711 | -9.02318 | 35081 ft | 452 kts | 115° |
| 2026-05-05 03:10 | 49.34675 | -8.93883 | 35078 ft | 452 kts | 115° |
| 2026-05-05 03:11 | 49.31630 | -8.85451 | 35076 ft | 452 kts | 115° |
| 2026-05-05 03:11 | 49.28575 | -8.77018 | 35076 ft | 452 kts | 115° |
| 2026-05-05 03:12 | 49.25508 | -8.68581 | 35082 ft | 452 kts | 115° |
| 2026-05-05 03:12 | 49.22449 | -8.60191 | 35090 ft | 452 kts | 115° |
| 2026-05-05 03:13 | 49.19404 | -8.51868 | 35085 ft | 452 kts | 116° |
| 2026-05-05 03:13 | 49.16313 | -8.43446 | 35080 ft | 452 kts | 116° |
| 2026-05-05 03:14 | 49.13256 | -8.35140 | 35066 ft | 452 kts | 116° |
| 2026-05-05 03:14 | 49.10160 | -8.26759 | 35048 ft | 452 kts | 116° |
| 2026-05-05 03:15 | 49.07238 | -8.18329 | 35039 ft | 449 kts | 111° |
| 2026-05-05 03:15 | 49.04766 | -8.09566 | 35031 ft | 449 kts | 110° |
| 2026-05-05 03:16 | 49.02278 | -8.00834 | 35031 ft | 449 kts | 111° |
| 2026-05-05 03:16 | 48.99782 | -7.92142 | 35028 ft | 449 kts | 111° |
| 2026-05-05 03:17 | 48.97267 | -7.83438 | 35028 ft | 449 kts | 111° |
| 2026-05-05 03:17 | 48.94745 | -7.74763 | 35030 ft | 448 kts | 111° |
| 2026-05-05 03:18 | 48.92227 | -7.66145 | 35027 ft | 448 kts | 111° |
| 2026-05-05 03:18 | 48.89691 | -7.57506 | 35026 ft | 448 kts | 111° |
| 2026-05-05 03:19 | 48.85887 | -7.44618 | 35024 ft | 448 kts | 112° |
| 2026-05-05 03:19 | 48.83325 | -7.35981 | 35023 ft | 448 kts | 112° |
| 2026-05-05 03:20 | 48.80759 | -7.27364 | 35024 ft | 448 kts | 112° |
| 2026-05-05 03:20 | 48.78200 | -7.18810 | 35020 ft | 448 kts | 112° |
| 2026-05-05 03:21 | 48.75618 | -7.10204 | 35019 ft | 448 kts | 112° |
| 2026-05-05 03:21 | 48.73031 | -7.01619 | 35027 ft | 448 kts | 113° |
| 2026-05-05 03:22 | 48.70448 | -6.93080 | 35017 ft | 448 kts | 113° |
| 2026-05-05 03:22 | 48.67858 | -6.84545 | 35017 ft | 447 kts | 113° |
| 2026-05-05 03:23 | 48.65252 | -6.75985 | 35016 ft | 447 kts | 113° |
| 2026-05-05 03:23 | 48.62640 | -6.67438 | 35015 ft | 447 kts | 113° |
| 2026-05-05 03:24 | 48.60048 | -6.58989 | 35015 ft | 447 kts | 113° |
| 2026-05-05 03:24 | 48.57418 | -6.50441 | 35019 ft | 447 kts | 113° |
| 2026-05-05 03:25 | 48.54800 | -6.41966 | 35012 ft | 447 kts | 113° |
| 2026-05-05 03:25 | 48.52157 | -6.33437 | 35016 ft | 447 kts | 114° |
| 2026-05-05 03:26 | 48.49512 | -6.24930 | 35011 ft | 447 kts | 114° |
| 2026-05-05 03:26 | 48.46870 | -6.16463 | 35011 ft | 447 kts | 114° |
| 2026-05-05 03:27 | 48.44226 | -6.08019 | 35010 ft | 447 kts | 114° |
| 2026-05-05 03:27 | 48.41560 | -5.99531 | 35009 ft | 447 kts | 114° |
| 2026-05-05 03:28 | 48.38890 | -5.91062 | 35007 ft | 447 kts | 114° |
| 2026-05-05 03:28 | 48.36222 | -5.82626 | 35008 ft | 448 kts | 114° |
| 2026-05-05 03:29 | 48.33563 | -5.74248 | 35008 ft | 447 kts | 114° |
| 2026-05-05 03:29 | 48.30889 | -5.65850 | 35008 ft | 447 kts | 114° |
| 2026-05-05 03:30 | 48.28193 | -5.57412 | 35007 ft | 447 kts | 115° |
| 2026-05-05 03:30 | 48.25503 | -5.49026 | 35007 ft | 447 kts | 115° |
| 2026-05-05 03:31 | 48.22830 | -5.40604 | 35006 ft | 447 kts | 113° |
| 2026-05-05 03:31 | 48.20319 | -5.32048 | 35003 ft | 447 kts | 114° |
| 2026-05-05 03:32 | 48.17783 | -5.23565 | 34998 ft | 446 kts | 114° |
| 2026-05-05 03:32 | 48.15268 | -5.15195 | 34996 ft | 442 kts | 114° |
| 2026-05-05 03:33 | 48.12752 | -5.06845 | 34995 ft | 441 kts | 114° |
| 2026-05-05 03:33 | 48.10226 | -4.98495 | 34995 ft | 441 kts | 114° |
| 2026-05-05 03:34 | 48.07686 | -4.90123 | 34995 ft | 441 kts | 114° |
| 2026-05-05 03:34 | 48.05163 | -4.81839 | 34995 ft | 440 kts | 114° |
| 2026-05-05 03:35 | 48.02622 | -4.73519 | 34994 ft | 440 kts | 114° |
| 2026-05-05 03:35 | 48.00097 | -4.65282 | 34993 ft | 440 kts | 115° |
| 2026-05-05 03:36 | 47.97536 | -4.56957 | 34997 ft | 440 kts | 115° |
| 2026-05-05 03:36 | 47.94985 | -4.48691 | 34988 ft | 439 kts | 115° |
| 2026-05-05 03:37 | 47.92439 | -4.40466 | 34986 ft | 440 kts | 115° |
| 2026-05-05 03:37 | 47.89872 | -4.32202 | 34986 ft | 441 kts | 116° |
| 2026-05-05 03:38 | 47.87293 | -4.23926 | 34979 ft | 441 kts | 116° |
| 2026-05-05 03:38 | 47.84721 | -4.15701 | 34978 ft | 440 kts | 116° |
| 2026-05-05 03:39 | 47.82141 | -4.07477 | 34977 ft | 440 kts | 116° |
| 2026-05-05 03:39 | 47.79552 | -3.99250 | 34976 ft | 439 kts | 116° |
| 2026-05-05 03:40 | 47.76967 | -3.91062 | 34977 ft | 439 kts | 116° |
| 2026-05-05 03:40 | 47.74362 | -3.82840 | 34976 ft | 439 kts | 116° |
| 2026-05-05 03:41 | 47.71772 | -3.74690 | 34976 ft | 439 kts | 116° |
| 2026-05-05 03:41 | 47.69152 | -3.66474 | 34974 ft | 439 kts | 116° |
| 2026-05-05 03:42 | 47.66554 | -3.58353 | 34974 ft | 439 kts | 116° |
| 2026-05-05 03:42 | 47.63929 | -3.50171 | 34974 ft | 439 kts | 116° |
| 2026-05-05 03:43 | 47.61302 | -3.42011 | 34974 ft | 439 kts | 116° |
| 2026-05-05 03:43 | 47.58683 | -3.33902 | 34973 ft | 440 kts | 117° |
| 2026-05-05 03:44 | 47.56032 | -3.25720 | 34970 ft | 440 kts | 117° |
| 2026-05-05 03:44 | 47.53400 | -3.17623 | 34969 ft | 440 kts | 117° |
| 2026-05-05 03:45 | 47.50743 | -3.09473 | 34967 ft | 440 kts | 117° |
| 2026-05-05 03:45 | 47.48094 | -3.01373 | 34965 ft | 440 kts | 117° |
| 2026-05-05 03:46 | 47.45428 | -2.93252 | 34962 ft | 440 kts | 117° |
| 2026-05-05 03:46 | 47.42759 | -2.85141 | 34960 ft | 440 kts | 117° |
| 2026-05-05 03:47 | 47.40080 | -2.77028 | 34958 ft | 440 kts | 118° |
| 2026-05-05 03:47 | 47.37411 | -2.68974 | 34957 ft | 440 kts | 118° |
| 2026-05-05 03:48 | 47.34720 | -2.60876 | 34956 ft | 440 kts | 118° |
| 2026-05-05 03:48 | 47.32040 | -2.52834 | 34954 ft | 440 kts | 118° |
| 2026-05-05 03:49 | 47.29332 | -2.44736 | 34951 ft | 440 kts | 118° |
| 2026-05-05 03:49 | 47.26637 | -2.36700 | 34948 ft | 439 kts | 118° |
| 2026-05-05 03:50 | 47.23940 | -2.28686 | 34945 ft | 439 kts | 119° |
| 2026-05-05 03:50 | 47.21231 | -2.20659 | 34944 ft | 439 kts | 119° |
| 2026-05-05 03:51 | 47.18517 | -2.12644 | 34945 ft | 439 kts | 119° |
| 2026-05-05 03:51 | 47.15787 | -2.04605 | 34944 ft | 439 kts | 119° |
| 2026-05-05 03:52 | 47.13063 | -1.96607 | 34943 ft | 439 kts | 119° |
| 2026-05-05 03:52 | 47.10334 | -1.88622 | 34940 ft | 439 kts | 119° |
| 2026-05-05 03:53 | 47.07606 | -1.80663 | 34938 ft | 438 kts | 119° |
| 2026-05-05 03:53 | 47.04865 | -1.72688 | 34929 ft | 438 kts | 119° |
| 2026-05-05 03:54 | 47.02128 | -1.64752 | 34927 ft | 438 kts | 119° |
| 2026-05-05 03:54 | 46.99373 | -1.56787 | 34921 ft | 438 kts | 119° |
| 2026-05-05 03:55 | 46.96607 | -1.48814 | 34924 ft | 438 kts | 119° |
| 2026-05-05 03:55 | 46.93852 | -1.40896 | 34926 ft | 438 kts | 119° |
| 2026-05-05 03:56 | 46.91075 | -1.32941 | 34928 ft | 439 kts | 120° |
| 2026-05-05 03:56 | 46.88300 | -1.25014 | 34932 ft | 439 kts | 120° |
| 2026-05-05 03:57 | 46.85533 | -1.17134 | 34935 ft | 439 kts | 120° |
| 2026-05-05 03:57 | 46.82730 | -1.09173 | 34939 ft | 439 kts | 120° |
| 2026-05-05 03:58 | 46.79952 | -1.01310 | 34940 ft | 439 kts | 120° |
| 2026-05-05 03:58 | 46.77154 | -0.93413 | 34939 ft | 439 kts | 120° |
| 2026-05-05 03:59 | 46.74353 | -0.85533 | 34937 ft | 439 kts | 120° |
| 2026-05-05 03:59 | 46.71529 | -0.77606 | 34935 ft | 439 kts | 120° |
| 2026-05-05 04:00 | 46.68715 | -0.69736 | 34931 ft | 439 kts | 120° |
| 2026-05-05 04:00 | 46.65888 | -0.61848 | 34929 ft | 440 kts | 120° |
| 2026-05-05 04:01 | 46.63061 | -0.53986 | 34929 ft | 439 kts | 120° |
| 2026-05-05 04:01 | 46.60218 | -0.46103 | 34927 ft | 439 kts | 120° |
| 2026-05-05 04:02 | 46.57393 | -0.38295 | 34923 ft | 440 kts | 120° |
| 2026-05-05 04:02 | 46.54532 | -0.30406 | 34920 ft | 440 kts | 121° |
| 2026-05-05 04:03 | 46.51683 | -0.22574 | 34916 ft | 440 kts | 121° |
| 2026-05-05 04:03 | 46.48826 | -0.14747 | 34912 ft | 439 kts | 121° |
| 2026-05-05 04:04 | 46.45963 | -0.06921 | 34911 ft | 439 kts | 121° |
| 2026-05-05 04:04 | 46.43106 | 0.00860 | 34908 ft | 439 kts | 121° |
| 2026-05-05 04:05 | 46.40245 | 0.08633 | 34908 ft | 439 kts | 121° |
| 2026-05-05 04:05 | 46.37360 | 0.16448 | 34904 ft | 438 kts | 121° |
| 2026-05-05 04:06 | 46.34495 | 0.24189 | 34902 ft | 437 kts | 122° |
| 2026-05-05 04:06 | 46.31633 | 0.31899 | 34900 ft | 435 kts | 122° |
| 2026-05-05 04:07 | 46.28786 | 0.39542 | 34900 ft | 434 kts | 122° |
| 2026-05-05 04:07 | 46.25903 | 0.47263 | 34901 ft | 434 kts | 122° |
| 2026-05-05 04:08 | 46.23043 | 0.54902 | 34903 ft | 434 kts | 122° |
| 2026-05-05 04:08 | 46.20164 | 0.62568 | 34905 ft | 434 kts | 122° |
| 2026-05-05 04:09 | 46.17285 | 0.70215 | 34908 ft | 435 kts | 123° |
| 2026-05-05 04:09 | 46.14394 | 0.77869 | 34910 ft | 434 kts | 123° |
| 2026-05-05 04:10 | 46.11506 | 0.85498 | 34911 ft | 434 kts | 123° |
| 2026-05-05 04:10 | 46.08624 | 0.93087 | 34913 ft | 434 kts | 123° |
| 2026-05-05 04:11 | 46.05735 | 1.00674 | 34914 ft | 433 kts | 123° |
| 2026-05-05 04:11 | 46.02829 | 1.08284 | 34916 ft | 433 kts | 123° |
| 2026-05-05 04:12 | 45.99931 | 1.15850 | 34917 ft | 433 kts | 123° |
| 2026-05-05 04:12 | 45.97021 | 1.23430 | 34916 ft | 433 kts | 123° |
| 2026-05-05 04:13 | 45.94101 | 1.31014 | 34917 ft | 434 kts | 123° |
| 2026-05-05 04:13 | 45.91186 | 1.38562 | 34918 ft | 435 kts | 123° |
| 2026-05-05 04:14 | 45.88250 | 1.46148 | 34918 ft | 436 kts | 123° |
| 2026-05-05 04:14 | 45.85285 | 1.53784 | 34918 ft | 436 kts | 123° |
| 2026-05-05 04:15 | 45.82344 | 1.61338 | 34916 ft | 436 kts | 123° |
| 2026-05-05 04:15 | 45.79386 | 1.68916 | 34916 ft | 435 kts | 124° |
| 2026-05-05 04:16 | 45.76445 | 1.76428 | 34918 ft | 434 kts | 124° |
| 2026-05-05 04:16 | 45.73483 | 1.83976 | 34919 ft | 433 kts | 124° |
| 2026-05-05 04:17 | 45.70533 | 1.91470 | 34923 ft | 433 kts | 124° |
| 2026-05-05 04:17 | 45.67580 | 1.98952 | 34926 ft | 432 kts | 124° |
| 2026-05-05 04:18 | 45.64635 | 2.06394 | 34927 ft | 433 kts | 124° |
| 2026-05-05 04:18 | 45.61672 | 2.13860 | 34931 ft | 433 kts | 124° |
| 2026-05-05 04:19 | 45.58708 | 2.21311 | 34934 ft | 433 kts | 124° |
| 2026-05-05 04:19 | 45.55719 | 2.28803 | 34930 ft | 432 kts | 124° |
| 2026-05-05 04:20 | 45.52750 | 2.36225 | 34924 ft | 433 kts | 124° |
| 2026-05-05 04:20 | 45.49755 | 2.43692 | 34917 ft | 433 kts | 124° |
| 2026-05-05 04:21 | 45.46767 | 2.51121 | 34911 ft | 434 kts | 124° |
| 2026-05-05 04:21 | 45.43768 | 2.58559 | 34921 ft | 434 kts | 124° |
| 2026-05-05 04:22 | 45.40749 | 2.66026 | 34932 ft | 434 kts | 125° |
| 2026-05-05 04:22 | 45.37743 | 2.73440 | 34853 ft | 435 kts | 125° |
| 2026-05-05 04:23 | 45.34717 | 2.80886 | 34848 ft | 433 kts | 125° |
| 2026-05-05 04:23 | 45.31702 | 2.88283 | 34884 ft | 435 kts | 125° |
| 2026-05-05 04:24 | 45.28666 | 2.95713 | 34894 ft | 436 kts | 125° |
| 2026-05-05 04:25 | 45.24106 | 3.06835 | 34924 ft | 435 kts | 125° |
| 2026-05-05 04:25 | 45.21060 | 3.14240 | 34951 ft | 436 kts | 125° |
| 2026-05-05 04:26 | 45.18003 | 3.21651 | 34935 ft | 436 kts | 125° |
| 2026-05-05 04:26 | 45.14941 | 3.29057 | 34927 ft | 436 kts | 125° |
| 2026-05-05 04:27 | 45.11881 | 3.36437 | 34929 ft | 436 kts | 125° |
| 2026-05-05 04:27 | 45.08800 | 3.43849 | 34927 ft | 436 kts | 125° |
| 2026-05-05 04:28 | 45.05722 | 3.51234 | 34916 ft | 436 kts | 125° |
| 2026-05-05 04:28 | 45.02658 | 3.58564 | 34917 ft | 436 kts | 125° |
| 2026-05-05 04:29 | 44.99577 | 3.65921 | 34921 ft | 436 kts | 126° |
| 2026-05-05 04:29 | 44.96487 | 3.73275 | 34921 ft | 436 kts | 126° |
| 2026-05-05 04:30 | 44.93382 | 3.80647 | 34918 ft | 436 kts | 126° |
| 2026-05-05 04:30 | 44.90276 | 3.88000 | 34911 ft | 437 kts | 126° |
| 2026-05-05 04:31 | 44.87146 | 3.95394 | 34916 ft | 438 kts | 126° |
| 2026-05-05 04:31 | 44.84034 | 4.02726 | 34924 ft | 439 kts | 126° |
| 2026-05-05 04:32 | 44.80900 | 4.10089 | 34923 ft | 440 kts | 126° |
| 2026-05-05 04:32 | 44.77750 | 4.17472 | 34917 ft | 441 kts | 125° |
| 2026-05-05 04:33 | 44.74581 | 4.24881 | 34899 ft | 441 kts | 125° |
| 2026-05-05 04:33 | 44.71426 | 4.32236 | 34842 ft | 441 kts | 125° |
| 2026-05-05 04:34 | 44.68244 | 4.39564 | 34875 ft | 438 kts | 128° |
| 2026-05-05 04:34 | 44.64517 | 4.46376 | 34965 ft | 438 kts | 132° |
| 2026-05-05 04:35 | 44.60711 | 4.53148 | 34911 ft | 439 kts | 132° |
| 2026-05-05 04:35 | 44.56931 | 4.59848 | 34874 ft | 437 kts | 132° |
| 2026-05-05 04:36 | 44.53159 | 4.66505 | 34886 ft | 437 kts | 133° |
| 2026-05-05 04:36 | 44.49350 | 4.73205 | 34895 ft | 438 kts | 133° |
| 2026-05-05 04:37 | 44.45555 | 4.79858 | 34889 ft | 438 kts | 133° |
| 2026-05-05 04:37 | 44.41757 | 4.86499 | 34892 ft | 437 kts | 133° |
| 2026-05-05 04:38 | 44.37948 | 4.93139 | 34893 ft | 437 kts | 133° |
| 2026-05-05 04:38 | 44.34129 | 4.99780 | 34894 ft | 437 kts | 133° |
| 2026-05-05 04:39 | 44.30325 | 5.06374 | 34894 ft | 437 kts | 133° |
| 2026-05-05 04:39 | 44.26498 | 5.12996 | 34897 ft | 436 kts | 133° |
| 2026-05-05 04:40 | 44.22692 | 5.19564 | 34879 ft | 436 kts | 132° |
| 2026-05-05 04:40 | 44.19204 | 5.25569 | 34880 ft | 435 kts | 132° |
| 2026-05-05 04:41 | 44.15408 | 5.32090 | 34921 ft | 435 kts | 132° |
| 2026-05-05 04:41 | 44.11580 | 5.38647 | 34789 ft | 439 kts | 132° |
| 2026-05-05 04:41 | 44.09642 | 5.41961 | 34327 ft | 439 kts | 132° |
| 2026-05-05 04:42 | 44.07732 | 5.45227 | 33822 ft | 437 kts | 132° |
| 2026-05-05 04:42 | 44.05826 | 5.48480 | 33273 ft | 436 kts | 132° |
| 2026-05-05 04:42 | 44.03898 | 5.51767 | 32552 ft | 432 kts | 132° |
| 2026-05-05 04:42 | 44.02034 | 5.54945 | 31900 ft | 425 kts | 132° |
| 2026-05-05 04:43 | 44.00166 | 5.58126 | 31282 ft | 416 kts | 132° |
| 2026-05-05 04:43 | 43.98348 | 5.61217 | 30694 ft | 408 kts | 131° |
| 2026-05-05 04:43 | 43.96592 | 5.64199 | 30133 ft | 400 kts | 131° |
| 2026-05-05 04:43 | 43.94829 | 5.67189 | 29588 ft | 392 kts | 132° |
| 2026-05-05 04:44 | 43.93110 | 5.70100 | 29062 ft | 384 kts | 132° |
| 2026-05-05 04:44 | 43.91437 | 5.72929 | 28556 ft | 376 kts | 132° |
| 2026-05-05 04:44 | 43.89796 | 5.75704 | 28095 ft | 369 kts | 132° |
| 2026-05-05 04:44 | 43.88176 | 5.78436 | 27634 ft | 363 kts | 133° |
| 2026-05-05 04:45 | 43.86583 | 5.81122 | 27174 ft | 358 kts | 133° |
| 2026-05-05 04:45 | 43.85016 | 5.83762 | 26718 ft | 352 kts | 133° |
| 2026-05-05 04:45 | 43.83472 | 5.86360 | 26273 ft | 347 kts | 133° |
| 2026-05-05 04:45 | 43.81948 | 5.88923 | 25831 ft | 343 kts | 133° |
| 2026-05-05 04:46 | 43.80442 | 5.91450 | 25391 ft | 340 kts | 133° |
| 2026-05-05 04:46 | 43.78945 | 5.93959 | 24945 ft | 341 kts | 133° |
| 2026-05-05 04:46 | 43.77443 | 5.96475 | 24500 ft | 339 kts | 133° |
| 2026-05-05 04:46 | 43.75945 | 5.98985 | 24056 ft | 337 kts | 133° |
| 2026-05-05 04:47 | 43.74452 | 6.01485 | 23615 ft | 336 kts | 133° |
| 2026-05-05 04:47 | 43.72960 | 6.03979 | 23177 ft | 334 kts | 133° |
| 2026-05-05 04:47 | 43.71494 | 6.06429 | 22758 ft | 331 kts | 133° |
| 2026-05-05 04:47 | 43.70030 | 6.08874 | 22345 ft | 329 kts | 133° |
| 2026-05-05 04:48 | 43.68564 | 6.11320 | 21914 ft | 328 kts | 133° |
| 2026-05-05 04:48 | 43.67119 | 6.13728 | 21490 ft | 327 kts | 133° |
| 2026-05-05 04:48 | 43.65669 | 6.16143 | 21052 ft | 326 kts | 133° |
| 2026-05-05 04:48 | 43.64238 | 6.18526 | 20609 ft | 323 kts | 133° |
| 2026-05-05 04:49 | 43.62810 | 6.20902 | 20177 ft | 320 kts | 133° |
| 2026-05-05 04:49 | 43.61387 | 6.23266 | 19754 ft | 318 kts | 134° |
| 2026-05-05 04:49 | 43.59970 | 6.25617 | 19366 ft | 316 kts | 134° |
| 2026-05-05 04:49 | 43.58569 | 6.27940 | 18913 ft | 318 kts | 134° |
| 2026-05-05 04:50 | 43.57311 | 6.30447 | 18338 ft | 324 kts | 119° |
| 2026-05-05 04:50 | 43.56730 | 6.33491 | 17672 ft | 335 kts | 102° |
| 2026-05-05 04:50 | 43.56473 | 6.36721 | 16880 ft | 342 kts | 100° |
| 2026-05-05 04:50 | 43.56205 | 6.39973 | 16089 ft | 346 kts | 101° |
| 2026-05-05 04:51 | 43.55917 | 6.43252 | 15305 ft | 349 kts | 101° |
| 2026-05-05 04:51 | 43.55620 | 6.46586 | 14518 ft | 351 kts | 101° |
| 2026-05-05 04:51 | 43.55322 | 6.49915 | 13732 ft | 351 kts | 101° |
| 2026-05-05 04:51 | 43.55023 | 6.53237 | 12957 ft | 351 kts | 101° |
| 2026-05-05 04:52 | 43.54722 | 6.56578 | 12188 ft | 350 kts | 100° |
| 2026-05-05 04:52 | 43.54425 | 6.59870 | 11374 ft | 345 kts | 100° |
| 2026-05-05 04:52 | 43.54133 | 6.63111 | 10593 ft | 337 kts | 100° |
| 2026-05-05 04:52 | 43.53844 | 6.66282 | 9820 ft | 330 kts | 101° |
| 2026-05-05 04:53 | 43.53560 | 6.69384 | 9045 ft | 324 kts | 101° |
| 2026-05-05 04:53 | 43.53280 | 6.72440 | 8275 ft | 319 kts | 101° |
| 2026-05-05 04:53 | 43.53003 | 6.75439 | 7517 ft | 314 kts | 100° |
| 2026-05-05 04:53 | 43.52735 | 6.78357 | 7055 ft | 299 kts | 100° |
| 2026-05-05 04:54 | 43.52481 | 6.81110 | 6771 ft | 284 kts | 99° |
| 2026-05-05 04:54 | 43.52228 | 6.83807 | 6324 ft | 285 kts | 99° |
| 2026-05-05 04:54 | 43.51977 | 6.86491 | 5951 ft | 279 kts | 99° |
| 2026-05-05 04:54 | 43.51732 | 6.89121 | 5577 ft | 274 kts | 99° |
| 2026-05-05 04:55 | 43.51487 | 6.91738 | 5220 ft | 271 kts | 99° |
| 2026-05-05 04:55 | 43.51249 | 6.94273 | 4811 ft | 262 kts | 99° |
| 2026-05-05 04:55 | 43.51022 | 6.96677 | 4521 ft | 247 kts | 99° |
| 2026-05-05 04:55 | 43.50873 | 6.98965 | 4194 ft | 237 kts | 87° |
| 2026-05-05 04:56 | 43.51392 | 7.01046 | 3977 ft | 222 kts | 58° |
| 2026-05-05 04:56 | 43.52338 | 7.02670 | 3577 ft | 214 kts | 49° |
| 2026-05-05 04:56 | 43.53314 | 7.04103 | 3292 ft | 196 kts | 47° |
| 2026-05-05 04:56 | 43.54225 | 7.05382 | 3090 ft | 181 kts | 46° |
| 2026-05-05 04:57 | 43.55104 | 7.06594 | 2807 ft | 174 kts | 46° |
| 2026-05-05 04:57 | 43.55936 | 7.07731 | 2591 ft | 162 kts | 46° |
| 2026-05-05 04:57 | 43.56709 | 7.08788 | 2356 ft | 149 kts | 46° |
| 2026-05-05 04:57 | 43.57031 | 7.09228 | 2262 ft | 148 kts | 46° |
| 2026-05-05 04:58 | 43.57615 | 7.10030 | 2117 ft | 152 kts | 47° |
| 2026-05-05 04:58 | 43.58366 | 7.11062 | 1904 ft | 151 kts | 47° |
| 2026-05-05 04:58 | 43.59095 | 7.12061 | 1764 ft | 144 kts | 48° |
| 2026-05-05 04:58 | 43.59790 | 7.13009 | 1538 ft | 133 kts | 47° |
| 2026-05-05 04:59 | 43.60435 | 7.13887 | 1370 ft | 130 kts | 47° |
| 2026-05-05 04:59 | 43.61070 | 7.14761 | 1184 ft | 125 kts | 47° |
| 2026-05-05 04:59 | 43.61699 | 7.15627 | 1007 ft | 130 kts | 46° |
| 2026-05-05 04:59 | 43.62333 | 7.16502 | 856 ft | 128 kts | 45° |
| 2026-05-05 05:00 | 43.62982 | 7.17395 | 650 ft | 132 kts | 44° |
| 2026-05-05 05:00 | 43.63621 | 7.18271 | 519 ft | 129 kts | 44° |
| 2026-05-05 05:00 | 43.64262 | 7.19147 | 320 ft | 125 kts | 43° |
| 2026-05-05 05:00 | 43.64886 | 7.20012 | 204 ft | 131 kts | 44° |
| 2026-05-05 05:01 | 43.65482 | 7.20824 | 44 ft | 114 kts | 43° |
| 2026-05-05 05:01 | 43.65988 | 7.21514 | 23 ft | 89 kts | 43° |
| 2026-05-05 05:01 | 43.66289 | 7.21920 | 23 ft | 27 kts | 39° |
| 2026-05-05 05:01 | 43.66464 | 7.22039 | 24 ft | 19 kts | 15° |
| 2026-05-05 05:02 | 43.66529 | 7.22054 | 24 ft | 11 kts | 339° |
| 2026-05-05 05:02 | 43.66545 | 7.22042 | 24 ft | 4 kts | 329° |
| 2026-05-05 05:02 | 43.66547 | 7.22041 | 24 ft | 0 kts | 330° |
| 2026-05-05 05:02 | 43.66547 | 7.22040 | 24 ft | 0 kts | 332° |
| 2026-05-05 05:03 | 43.66560 | 7.22032 | 24 ft | 4 kts | 338° |
| 2026-05-05 05:03 | 43.66569 | 7.22028 | 24 ft | 6 kts | 344° |
| 2026-05-05 05:03 | 43.66623 | 7.22069 | 24 ft | 11 kts | 46° |
| 2026-05-05 05:03 | 43.66690 | 7.22161 | 24 ft | 15 kts | 45° |
| 2026-05-05 05:04 | 43.66737 | 7.22226 | 24 ft | 18 kts | 44° |
| 2026-05-05 05:04 | 43.66749 | 7.22242 | 24 ft | 18 kts | 44° |
| 2026-05-05 05:04 | 43.66850 | 7.22377 | 24 ft | 22 kts | 47° |
| 2026-05-05 05:04 | 43.66907 | 7.22380 | 24 ft | 9 kts | 314° |
| 2026-05-05 05:05 | 43.66919 | 7.22363 | 24 ft | 0 kts | 316° |